Aeroporto :
LOGIN :

Iscrizione | Disclaimer

   EN    FR    IT 

 










Sommario :    VFR   VFR Marginale   IFR   IFR Intensivo   IFR Molto Intensivo
Visibilità : 
Base nubi : 
>= 8 km
>= 3000ft
5 / 8 km
1000 / 3000 ft
1500m / 5 km
500 / 1000 ft
800 / 1500m
200 / 500 ft
< 800m
< 200 ft
Simboli :   Temporali  Nebbia  Neve Forte  Precipitazioni Forti  Vento > 20 kt
SIGMETs :   Varie  Temporali  Ghiacco  Turbolenza  Onda orograficha  Ceneri Vulcaniche







- Altitudine del aeroporto : 1411 ft
- Codice IATA : GVA


LSGG - Genève Cointrin

ULTIMO METAR :
  • 130420Z AUTO VRB02KT 9999 BKN068 09/09 Q1025 NOSIG

METARs OBSOLETI :
  • 130350Z AUTO VRB02KT 9999 SCT063 BKN072 08/08 Q1024 NOSIG
  • 130320Z AUTO VRB01KT 9000 SCT070 BKN230 07/07 Q1024 NOSIG
  • 130250Z AUTO VRB01KT 9000 NSC 08/08 Q1024 NOSIG
  • 130220Z AUTO VRB01KT 9000 NSC 08/08 Q1024 NOSIG
  • 130150Z AUTO VRB02KT CAVOK 08/08 Q1023 NOSIG

TAF TAF LSGG
Valido dal 13 a 03 ore il 14 a 09 ore UTC


130225Z 1303/1409 VRB02KT 9999 BKN050 TX12/1315Z TN07/1306Z TN06/1406Z
BECMG 1402/1405 4000 BR OVC010
ATIS : +41 22 417 40 81
Nessun NOTAM noto per questo aeroporto.



MetMap, La meteo Aeronautica in un colpo d'occhio ! - Copyright ORBIFLY Dicembre 2007 - Disclaimer

ORBIFLY MET'MAP TEAM :

Programmazione e sviluppo : Alexandra Zaïnal
Concezione e sviluppo : Baudouin d'Aumeries
Co-Programmazione e sviluppo : Marc-Olivier Méhu
Supporto tecnico e logistico : Manuel Goepfert
Aiuto per la traduzione : Arnaldo La Scala

Contatto : metmap@orbifly.com




FONTI E CREDITI :

   NOAA